Terminal Aerodrome Forecast
Issued by NWS

Current Version | Previous Version | Graphics & Text | Print | Product List | Glossary On
Versions: 1 2 3 4 5 6 7 8 9 10 11 12 13 14 15 16 17 18 19 20
000
FTUS41 KPBZ 282300
TAFHLG
TAF
KHLG 282338Z 2900/2924 27012G24KT 3SM -SHRA BKN035
     FM290200 26007KT P6SM SCT120
     FM291500 25010G16KT P6SM BKN050
     FM292200 28008KT P6SM BKN050=

USA.gov is the U.S. government's official web portal to all federal, state and local government web resources and services.